sensor_id;sensor_type;location;lat;lon;timestamp;P1;durP1;ratioP1;P2;durP2;ratioP2
65879;SDS011;52661;51.364;6.054;2023-08-31T00:01:47;4.65;;;2.17;;
65879;SDS011;52661;51.364;6.054;2023-08-31T00:04:18;4.38;;;1.10;;
65879;SDS011;52661;51.364;6.054;2023-08-31T00:06:43;4.65;;;1.05;;
65879;SDS011;52661;51.364;6.054;2023-08-31T00:09:10;4.00;;;1.38;;
65879;SDS011;52661;51.364;6.054;2023-08-31T00:11:36;3.13;;;1.35;;
65879;SDS011;52661;51.364;6.054;2023-08-31T00:14:02;2.70;;;1.17;;
65879;SDS011;52661;51.364;6.054;2023-08-31T00:16:27;2.10;;;1.15;;
65879;SDS011;52661;51.364;6.054;2023-08-31T00:18:53;2.97;;;1.38;;
65879;SDS011;52661;51.364;6.054;2023-08-31T00:21:21;2.35;;;0.75;;
65879;SDS011;52661;51.364;6.054;2023-08-31T00:23:47;3.60;;;1.10;;
65879;SDS011;52661;51.364;6.054;2023-08-31T00:26:13;2.47;;;0.88;;
65879;SDS011;52661;51.364;6.054;2023-08-31T00:28:39;5.30;;;1.27;;
65879;SDS011;52661;51.364;6.054;2023-08-31T00:31:07;2.85;;;1.02;;
65879;SDS011;52661;51.364;6.054;2023-08-31T00:33:33;4.93;;;1.25;;
65879;SDS011;52661;51.364;6.054;2023-08-31T00:36:01;2.33;;;1.42;;
65879;SDS011;52661;51.364;6.054;2023-08-31T00:38:28;2.55;;;0.68;;
65879;SDS011;52661;51.364;6.054;2023-08-31T00:40:54;4.07;;;1.15;;
65879;SDS011;52661;51.364;6.054;2023-08-31T00:43:19;2.00;;;0.88;;
65879;SDS011;52661;51.364;6.054;2023-08-31T00:45:49;3.00;;;1.00;;
65879;SDS011;52661;51.364;6.054;2023-08-31T00:48:16;2.40;;;0.80;;
65879;SDS011;52661;51.364;6.054;2023-08-31T00:50:43;3.00;;;1.10;;
65879;SDS011;52661;51.364;6.054;2023-08-31T00:53:11;3.35;;;1.38;;
65879;SDS011;52661;51.364;6.054;2023-08-31T00:55:37;3.30;;;1.48;;
65879;SDS011;52661;51.364;6.054;2023-08-31T00:58:05;2.65;;;1.13;;
65879;SDS011;52661;51.364;6.054;2023-08-31T01:00:39;3.25;;;1.23;;
65879;SDS011;52661;51.364;6.054;2023-08-31T01:03:12;3.92;;;1.05;;
65879;SDS011;52661;51.364;6.054;2023-08-31T01:05:46;4.43;;;1.08;;
65879;SDS011;52661;51.364;6.054;2023-08-31T01:11:05;3.00;;;1.23;;
65879;SDS011;52661;51.364;6.054;2023-08-31T01:13:44;2.40;;;1.15;;
65879;SDS011;52661;51.364;6.054;2023-08-31T01:16:18;3.50;;;1.15;;
65879;SDS011;52661;51.364;6.054;2023-08-31T01:18:45;4.53;;;1.25;;
65879;SDS011;52661;51.364;6.054;2023-08-31T01:21:16;4.60;;;1.15;;
65879;SDS011;52661;51.364;6.054;2023-08-31T01:23:54;2.53;;;1.15;;
65879;SDS011;52661;51.364;6.054;2023-08-31T01:26:21;3.88;;;1.42;;
65879;SDS011;52661;51.364;6.054;2023-08-31T01:28:48;3.60;;;1.38;;
65879;SDS011;52661;51.364;6.054;2023-08-31T01:31:14;4.63;;;1.35;;
65879;SDS011;52661;51.364;6.054;2023-08-31T01:33:42;2.35;;;1.08;;
65879;SDS011;52661;51.364;6.054;2023-08-31T01:36:12;3.30;;;1.20;;
65879;SDS011;52661;51.364;6.054;2023-08-31T01:38:44;3.85;;;1.48;;
65879;SDS011;52661;51.364;6.054;2023-08-31T01:41:13;3.10;;;1.23;;
65879;SDS011;52661;51.364;6.054;2023-08-31T01:43:43;3.47;;;1.35;;
65879;SDS011;52661;51.364;6.054;2023-08-31T01:46:09;4.55;;;1.30;;
65879;SDS011;52661;51.364;6.054;2023-08-31T01:48:39;4.53;;;1.33;;
65879;SDS011;52661;51.364;6.054;2023-08-31T01:51:06;2.80;;;1.05;;
65879;SDS011;52661;51.364;6.054;2023-08-31T01:53:36;2.72;;;1.10;;
65879;SDS011;52661;51.364;6.054;2023-08-31T01:56:02;4.90;;;1.55;;
65879;SDS011;52661;51.364;6.054;2023-08-31T01:58:27;3.97;;;1.95;;
65879;SDS011;52661;51.364;6.054;2023-08-31T02:00:53;5.10;;;1.73;;
65879;SDS011;52661;51.364;6.054;2023-08-31T02:03:18;3.78;;;1.23;;
65879;SDS011;52661;51.364;6.054;2023-08-31T02:05:43;4.55;;;1.83;;
65879;SDS011;52661;51.364;6.054;2023-08-31T02:08:09;3.28;;;1.25;;
65879;SDS011;52661;51.364;6.054;2023-08-31T02:10:34;2.60;;;1.23;;
65879;SDS011;52661;51.364;6.054;2023-08-31T02:13:00;2.97;;;1.40;;
65879;SDS011;52661;51.364;6.054;2023-08-31T02:15:25;5.45;;;1.50;;
65879;SDS011;52661;51.364;6.054;2023-08-31T02:17:50;2.83;;;1.08;;
65879;SDS011;52661;51.364;6.054;2023-08-31T02:20:16;3.70;;;1.27;;
65879;SDS011;52661;51.364;6.054;2023-08-31T02:22:41;2.85;;;1.17;;
65879;SDS011;52661;51.364;6.054;2023-08-31T02:25:07;4.00;;;1.37;;
65879;SDS011;52661;51.364;6.054;2023-08-31T02:27:32;3.05;;;1.33;;
65879;SDS011;52661;51.364;6.054;2023-08-31T02:29:58;5.07;;;1.52;;
65879;SDS011;52661;51.364;6.054;2023-08-31T02:32:23;4.13;;;1.65;;
65879;SDS011;52661;51.364;6.054;2023-08-31T02:34:49;4.88;;;1.88;;
65879;SDS011;52661;51.364;6.054;2023-08-31T02:37:15;3.88;;;1.63;;
65879;SDS011;52661;51.364;6.054;2023-08-31T02:39:40;3.60;;;1.58;;
65879;SDS011;52661;51.364;6.054;2023-08-31T02:42:05;4.65;;;2.03;;
65879;SDS011;52661;51.364;6.054;2023-08-31T02:44:32;3.85;;;1.52;;
65879;SDS011;52661;51.364;6.054;2023-08-31T02:46:58;3.88;;;1.65;;
65879;SDS011;52661;51.364;6.054;2023-08-31T02:49:23;3.10;;;1.05;;
65879;SDS011;52661;51.364;6.054;2023-08-31T02:51:49;2.92;;;1.25;;
65879;SDS011;52661;51.364;6.054;2023-08-31T02:54:15;4.18;;;1.33;;
65879;SDS011;52661;51.364;6.054;2023-08-31T02:56:40;2.92;;;1.15;;
65879;SDS011;52661;51.364;6.054;2023-08-31T02:59:06;3.55;;;1.40;;
65879;SDS011;52661;51.364;6.054;2023-08-31T03:01:31;3.80;;;1.10;;
65879;SDS011;52661;51.364;6.054;2023-08-31T03:03:56;5.03;;;1.48;;
65879;SDS011;52661;51.364;6.054;2023-08-31T03:06:22;3.45;;;1.17;;
65879;SDS011;52661;51.364;6.054;2023-08-31T03:08:47;5.67;;;1.40;;
65879;SDS011;52661;51.364;6.054;2023-08-31T03:11:12;3.65;;;1.13;;
65879;SDS011;52661;51.364;6.054;2023-08-31T03:13:41;3.70;;;1.17;;
65879;SDS011;52661;51.364;6.054;2023-08-31T03:16:06;4.28;;;2.03;;
65879;SDS011;52661;51.364;6.054;2023-08-31T03:18:32;5.22;;;1.77;;
65879;SDS011;52661;51.364;6.054;2023-08-31T03:20:57;4.20;;;1.25;;
65879;SDS011;52661;51.364;6.054;2023-08-31T03:23:23;4.10;;;1.73;;
65879;SDS011;52661;51.364;6.054;2023-08-31T03:25:49;3.67;;;1.52;;
65879;SDS011;52661;51.364;6.054;2023-08-31T03:28:14;4.82;;;2.17;;
65879;SDS011;52661;51.364;6.054;2023-08-31T03:30:40;4.32;;;1.60;;
65879;SDS011;52661;51.364;6.054;2023-08-31T03:33:05;2.88;;;1.27;;
65879;SDS011;52661;51.364;6.054;2023-08-31T03:35:31;3.75;;;1.15;;
65879;SDS011;52661;51.364;6.054;2023-08-31T03:37:57;3.70;;;1.80;;
65879;SDS011;52661;51.364;6.054;2023-08-31T03:40:22;5.40;;;1.50;;
65879;SDS011;52661;51.364;6.054;2023-08-31T03:42:48;5.40;;;1.40;;
65879;SDS011;52661;51.364;6.054;2023-08-31T03:45:14;3.40;;;1.38;;
65879;SDS011;52661;51.364;6.054;2023-08-31T03:47:40;4.95;;;1.35;;
65879;SDS011;52661;51.364;6.054;2023-08-31T03:50:05;4.82;;;1.00;;
65879;SDS011;52661;51.364;6.054;2023-08-31T03:52:31;3.17;;;1.27;;
65879;SDS011;52661;51.364;6.054;2023-08-31T03:54:56;2.90;;;0.88;;
65879;SDS011;52661;51.364;6.054;2023-08-31T03:57:22;3.78;;;1.30;;
65879;SDS011;52661;51.364;6.054;2023-08-31T03:59:47;3.63;;;1.85;;
65879;SDS011;52661;51.364;6.054;2023-08-31T04:02:13;7.18;;;1.25;;
65879;SDS011;52661;51.364;6.054;2023-08-31T04:04:38;4.28;;;1.15;;
65879;SDS011;52661;51.364;6.054;2023-08-31T04:07:04;4.60;;;1.17;;
65879;SDS011;52661;51.364;6.054;2023-08-31T04:09:31;3.20;;;1.15;;
65879;SDS011;52661;51.364;6.054;2023-08-31T04:11:56;4.17;;;1.20;;
65879;SDS011;52661;51.364;6.054;2023-08-31T04:14:21;4.10;;;1.03;;
65879;SDS011;52661;51.364;6.054;2023-08-31T04:16:47;4.25;;;1.42;;
65879;SDS011;52661;51.364;6.054;2023-08-31T04:19:15;4.38;;;1.52;;
65879;SDS011;52661;51.364;6.054;2023-08-31T04:21:41;3.88;;;1.38;;
65879;SDS011;52661;51.364;6.054;2023-08-31T04:24:06;5.18;;;1.23;;
65879;SDS011;52661;51.364;6.054;2023-08-31T04:26:32;4.75;;;1.75;;
65879;SDS011;52661;51.364;6.054;2023-08-31T04:28:57;4.40;;;1.60;;
65879;SDS011;52661;51.364;6.054;2023-08-31T04:31:23;3.47;;;1.43;;
65879;SDS011;52661;51.364;6.054;2023-08-31T04:33:48;4.38;;;1.80;;
65879;SDS011;52661;51.364;6.054;2023-08-31T04:36:13;3.88;;;1.50;;
65879;SDS011;52661;51.364;6.054;2023-08-31T04:38:39;3.90;;;1.33;;
65879;SDS011;52661;51.364;6.054;2023-08-31T04:41:04;6.35;;;1.52;;
65879;SDS011;52661;51.364;6.054;2023-08-31T04:43:30;3.42;;;1.45;;
65879;SDS011;52661;51.364;6.054;2023-08-31T04:45:56;3.78;;;1.52;;
65879;SDS011;52661;51.364;6.054;2023-08-31T04:48:21;3.40;;;1.42;;
65879;SDS011;52661;51.364;6.054;2023-08-31T04:50:47;4.20;;;1.48;;
65879;SDS011;52661;51.364;6.054;2023-08-31T04:53:12;4.22;;;1.55;;
65879;SDS011;52661;51.364;6.054;2023-08-31T04:55:38;4.50;;;1.73;;
65879;SDS011;52661;51.364;6.054;2023-08-31T04:58:03;4.10;;;1.60;;
65879;SDS011;52661;51.364;6.054;2023-08-31T05:00:29;4.85;;;1.55;;
65879;SDS011;52661;51.364;6.054;2023-08-31T05:02:55;7.90;;;1.38;;
65879;SDS011;52661;51.364;6.054;2023-08-31T05:05:20;3.70;;;1.65;;
65879;SDS011;52661;51.364;6.054;2023-08-31T05:07:46;5.22;;;1.67;;
65879;SDS011;52661;51.364;6.054;2023-08-31T05:10:11;3.78;;;1.27;;
65879;SDS011;52661;51.364;6.054;2023-08-31T05:12:36;4.17;;;2.00;;
65879;SDS011;52661;51.364;6.054;2023-08-31T05:15:02;6.13;;;1.48;;
65879;SDS011;52661;51.364;6.054;2023-08-31T05:17:28;4.38;;;1.52;;
65879;SDS011;52661;51.364;6.054;2023-08-31T05:19:55;6.85;;;2.10;;
65879;SDS011;52661;51.364;6.054;2023-08-31T05:22:20;3.83;;;1.58;;
65879;SDS011;52661;51.364;6.054;2023-08-31T05:24:46;4.68;;;0.90;;
65879;SDS011;52661;51.364;6.054;2023-08-31T05:27:11;4.60;;;1.87;;
65879;SDS011;52661;51.364;6.054;2023-08-31T05:29:37;4.93;;;1.65;;
65879;SDS011;52661;51.364;6.054;2023-08-31T05:32:02;4.20;;;1.60;;
65879;SDS011;52661;51.364;6.054;2023-08-31T05:34:27;5.50;;;1.95;;
65879;SDS011;52661;51.364;6.054;2023-08-31T05:36:53;3.80;;;1.52;;
65879;SDS011;52661;51.364;6.054;2023-08-31T05:39:19;5.57;;;2.08;;
65879;SDS011;52661;51.364;6.054;2023-08-31T05:41:44;6.90;;;2.20;;
65879;SDS011;52661;51.364;6.054;2023-08-31T05:44:09;3.67;;;1.38;;
65879;SDS011;52661;51.364;6.054;2023-08-31T05:46:35;3.97;;;1.63;;
65879;SDS011;52661;51.364;6.054;2023-08-31T05:49:01;4.45;;;1.42;;
65879;SDS011;52661;51.364;6.054;2023-08-31T05:51:27;3.53;;;1.70;;
65879;SDS011;52661;51.364;6.054;2023-08-31T05:53:52;4.03;;;1.65;;
65879;SDS011;52661;51.364;6.054;2023-08-31T05:56:18;3.58;;;1.17;;
65879;SDS011;52661;51.364;6.054;2023-08-31T05:58:44;5.20;;;1.73;;
65879;SDS011;52661;51.364;6.054;2023-08-31T06:01:10;3.60;;;1.35;;
65879;SDS011;52661;51.364;6.054;2023-08-31T06:03:35;4.97;;;1.98;;
65879;SDS011;52661;51.364;6.054;2023-08-31T06:06:01;4.38;;;1.70;;
65879;SDS011;52661;51.364;6.054;2023-08-31T06:08:27;3.53;;;1.35;;
65879;SDS011;52661;51.364;6.054;2023-08-31T06:10:52;4.65;;;1.85;;
65879;SDS011;52661;51.364;6.054;2023-08-31T06:13:18;3.13;;;1.13;;
65879;SDS011;52661;51.364;6.054;2023-08-31T06:15:44;5.53;;;1.45;;
65879;SDS011;52661;51.364;6.054;2023-08-31T06:18:12;5.47;;;1.73;;
65879;SDS011;52661;51.364;6.054;2023-08-31T06:20:37;9.50;;;1.95;;
65879;SDS011;52661;51.364;6.054;2023-08-31T06:23:03;3.97;;;1.73;;
65879;SDS011;52661;51.364;6.054;2023-08-31T06:25:29;4.30;;;1.17;;
65879;SDS011;52661;51.364;6.054;2023-08-31T06:27:55;5.45;;;1.92;;
65879;SDS011;52661;51.364;6.054;2023-08-31T06:30:20;8.30;;;1.70;;
65879;SDS011;52661;51.364;6.054;2023-08-31T06:32:46;3.53;;;1.42;;
65879;SDS011;52661;51.364;6.054;2023-08-31T06:35:13;4.32;;;1.60;;
65879;SDS011;52661;51.364;6.054;2023-08-31T06:37:40;3.03;;;1.35;;
65879;SDS011;52661;51.364;6.054;2023-08-31T06:40:06;5.07;;;2.10;;
65879;SDS011;52661;51.364;6.054;2023-08-31T06:42:36;4.70;;;1.42;;
65879;SDS011;52661;51.364;6.054;2023-08-31T06:45:05;4.80;;;1.90;;
65879;SDS011;52661;51.364;6.054;2023-08-31T06:47:31;5.75;;;1.75;;
65879;SDS011;52661;51.364;6.054;2023-08-31T06:49:57;3.45;;;1.17;;
65879;SDS011;52661;51.364;6.054;2023-08-31T06:52:25;6.22;;;1.48;;
65879;SDS011;52661;51.364;6.054;2023-08-31T06:54:51;4.32;;;1.38;;
65879;SDS011;52661;51.364;6.054;2023-08-31T06:57:24;4.05;;;1.90;;
65879;SDS011;52661;51.364;6.054;2023-08-31T06:59:50;5.47;;;2.03;;
65879;SDS011;52661;51.364;6.054;2023-08-31T07:02:16;3.78;;;1.40;;
65879;SDS011;52661;51.364;6.054;2023-08-31T07:04:41;3.97;;;1.25;;
65879;SDS011;52661;51.364;6.054;2023-08-31T07:07:07;3.40;;;1.25;;
65879;SDS011;52661;51.364;6.054;2023-08-31T07:09:33;3.70;;;1.75;;
65879;SDS011;52661;51.364;6.054;2023-08-31T07:11:59;4.05;;;1.42;;
65879;SDS011;52661;51.364;6.054;2023-08-31T07:14:24;6.90;;;1.83;;
65879;SDS011;52661;51.364;6.054;2023-08-31T07:16:51;4.32;;;1.88;;
65879;SDS011;52661;51.364;6.054;2023-08-31T07:19:16;5.13;;;1.75;;
65879;SDS011;52661;51.364;6.054;2023-08-31T07:21:41;3.95;;;1.90;;
65879;SDS011;52661;51.364;6.054;2023-08-31T07:24:07;4.63;;;1.77;;
65879;SDS011;52661;51.364;6.054;2023-08-31T07:26:32;5.82;;;1.83;;
65879;SDS011;52661;51.364;6.054;2023-08-31T07:28:59;7.00;;;2.17;;
65879;SDS011;52661;51.364;6.054;2023-08-31T07:31:26;4.32;;;1.30;;
65879;SDS011;52661;51.364;6.054;2023-08-31T07:33:51;4.35;;;1.85;;
65879;SDS011;52661;51.364;6.054;2023-08-31T07:36:17;3.77;;;1.60;;
65879;SDS011;52661;51.364;6.054;2023-08-31T07:38:42;5.50;;;1.47;;
65879;SDS011;52661;51.364;6.054;2023-08-31T07:41:07;4.50;;;1.77;;
65879;SDS011;52661;51.364;6.054;2023-08-31T07:43:33;6.53;;;1.63;;
65879;SDS011;52661;51.364;6.054;2023-08-31T07:45:58;4.35;;;1.55;;
65879;SDS011;52661;51.364;6.054;2023-08-31T07:48:23;5.50;;;2.10;;
65879;SDS011;52661;51.364;6.054;2023-08-31T07:50:49;5.03;;;2.08;;
65879;SDS011;52661;51.364;6.054;2023-08-31T07:53:14;5.10;;;1.70;;
65879;SDS011;52661;51.364;6.054;2023-08-31T07:55:40;3.40;;;1.40;;
65879;SDS011;52661;51.364;6.054;2023-08-31T07:58:06;3.58;;;1.67;;
65879;SDS011;52661;51.364;6.054;2023-08-31T08:00:31;4.75;;;1.63;;
65879;SDS011;52661;51.364;6.054;2023-08-31T08:02:57;4.82;;;1.83;;
65879;SDS011;52661;51.364;6.054;2023-08-31T08:05:22;6.10;;;1.90;;
65879;SDS011;52661;51.364;6.054;2023-08-31T08:07:47;4.28;;;2.05;;
65879;SDS011;52661;51.364;6.054;2023-08-31T08:10:13;6.50;;;1.70;;
65879;SDS011;52661;51.364;6.054;2023-08-31T08:12:39;6.40;;;1.63;;
65879;SDS011;52661;51.364;6.054;2023-08-31T08:15:06;4.70;;;1.95;;
65879;SDS011;52661;51.364;6.054;2023-08-31T08:17:33;6.13;;;2.58;;
65879;SDS011;52661;51.364;6.054;2023-08-31T08:19:58;5.55;;;1.85;;
65879;SDS011;52661;51.364;6.054;2023-08-31T08:22:24;3.88;;;1.55;;
65879;SDS011;52661;51.364;6.054;2023-08-31T08:24:50;4.57;;;1.65;;
65879;SDS011;52661;51.364;6.054;2023-08-31T08:27:15;5.15;;;2.05;;
65879;SDS011;52661;51.364;6.054;2023-08-31T08:29:42;3.42;;;1.45;;
65879;SDS011;52661;51.364;6.054;2023-08-31T08:32:08;5.25;;;1.73;;
65879;SDS011;52661;51.364;6.054;2023-08-31T08:34:34;5.22;;;1.73;;
65879;SDS011;52661;51.364;6.054;2023-08-31T08:36:59;5.22;;;1.95;;
65879;SDS011;52661;51.364;6.054;2023-08-31T08:39:24;4.07;;;1.70;;
65879;SDS011;52661;51.364;6.054;2023-08-31T08:41:50;3.53;;;1.00;;
65879;SDS011;52661;51.364;6.054;2023-08-31T08:44:17;4.65;;;1.13;;
65879;SDS011;52661;51.364;6.054;2023-08-31T08:46:45;5.53;;;1.30;;
65879;SDS011;52661;51.364;6.054;2023-08-31T08:49:11;3.85;;;1.02;;
65879;SDS011;52661;51.364;6.054;2023-08-31T08:51:37;4.10;;;1.33;;
65879;SDS011;52661;51.364;6.054;2023-08-31T08:54:03;4.15;;;1.10;;
65879;SDS011;52661;51.364;6.054;2023-08-31T08:56:28;3.75;;;1.30;;
65879;SDS011;52661;51.364;6.054;2023-08-31T08:58:53;5.53;;;1.58;;
65879;SDS011;52661;51.364;6.054;2023-08-31T09:01:19;4.07;;;1.67;;
65879;SDS011;52661;51.364;6.054;2023-08-31T09:03:47;4.43;;;1.70;;
65879;SDS011;52661;51.364;6.054;2023-08-31T09:06:14;5.30;;;1.30;;
65879;SDS011;52661;51.364;6.054;2023-08-31T09:08:39;3.42;;;1.42;;
65879;SDS011;52661;51.364;6.054;2023-08-31T09:11:06;2.65;;;1.17;;
65879;SDS011;52661;51.364;6.054;2023-08-31T09:13:31;5.43;;;1.40;;
65879;SDS011;52661;51.364;6.054;2023-08-31T09:15:58;5.72;;;1.90;;
65879;SDS011;52661;51.364;6.054;2023-08-31T09:18:28;8.07;;;2.00;;
65879;SDS011;52661;51.364;6.054;2023-08-31T09:20:54;4.90;;;1.63;;
65879;SDS011;52661;51.364;6.054;2023-08-31T09:23:24;6.40;;;1.77;;
65879;SDS011;52661;51.364;6.054;2023-08-31T09:25:51;3.30;;;1.38;;
65879;SDS011;52661;51.364;6.054;2023-08-31T09:28:21;8.95;;;2.03;;
65879;SDS011;52661;51.364;6.054;2023-08-31T09:30:53;4.32;;;2.17;;
65879;SDS011;52661;51.364;6.054;2023-08-31T09:33:29;5.40;;;1.80;;
65879;SDS011;52661;51.364;6.054;2023-08-31T09:35:56;7.28;;;2.00;;
65879;SDS011;52661;51.364;6.054;2023-08-31T09:38:25;6.57;;;1.92;;
65879;SDS011;52661;51.364;6.054;2023-08-31T09:40:50;5.35;;;2.38;;
65879;SDS011;52661;51.364;6.054;2023-08-31T09:43:19;5.20;;;1.77;;
65879;SDS011;52661;51.364;6.054;2023-08-31T09:45:46;3.97;;;1.48;;
65879;SDS011;52661;51.364;6.054;2023-08-31T09:48:13;4.75;;;1.58;;
65879;SDS011;52661;51.364;6.054;2023-08-31T09:50:40;6.10;;;2.15;;
65879;SDS011;52661;51.364;6.054;2023-08-31T09:53:13;10.10;;;1.83;;
65879;SDS011;52661;51.364;6.054;2023-08-31T09:55:41;7.15;;;2.00;;
65879;SDS011;52661;51.364;6.054;2023-08-31T09:58:08;4.63;;;2.13;;
65879;SDS011;52661;51.364;6.054;2023-08-31T10:00:35;5.47;;;1.60;;
65879;SDS011;52661;51.364;6.054;2023-08-31T10:03:03;3.15;;;1.35;;
65879;SDS011;52661;51.364;6.054;2023-08-31T10:05:30;4.43;;;1.35;;
65879;SDS011;52661;51.364;6.054;2023-08-31T10:07:56;4.70;;;1.42;;
65879;SDS011;52661;51.364;6.054;2023-08-31T10:10:23;4.07;;;1.85;;
65879;SDS011;52661;51.364;6.054;2023-08-31T10:12:49;2.85;;;1.25;;
65879;SDS011;52661;51.364;6.054;2023-08-31T10:15:18;4.50;;;1.38;;
65879;SDS011;52661;51.364;6.054;2023-08-31T10:17:44;5.80;;;1.20;;
65879;SDS011;52661;51.364;6.054;2023-08-31T10:20:15;5.18;;;1.10;;
65879;SDS011;52661;51.364;6.054;2023-08-31T10:22:42;3.42;;;1.23;;
65879;SDS011;52661;51.364;6.054;2023-08-31T10:25:08;4.40;;;1.00;;
65879;SDS011;52661;51.364;6.054;2023-08-31T10:27:38;4.03;;;1.23;;
65879;SDS011;52661;51.364;6.054;2023-08-31T10:38:24;4.93;;;1.67;;
65879;SDS011;52661;51.364;6.054;2023-08-31T10:41:34;3.67;;;0.95;;
65879;SDS011;52661;51.364;6.054;2023-08-31T10:51:21;3.25;;;0.60;;
65879;SDS011;52661;51.364;6.054;2023-08-31T10:53:47;2.88;;;0.82;;
65879;SDS011;52661;51.364;6.054;2023-08-31T10:56:15;3.15;;;0.95;;
65879;SDS011;52661;51.364;6.054;2023-08-31T10:58:41;2.85;;;1.10;;
65879;SDS011;52661;51.364;6.054;2023-08-31T11:01:06;3.83;;;1.15;;
65879;SDS011;52661;51.364;6.054;2023-08-31T11:03:32;4.70;;;1.05;;
65879;SDS011;52661;51.364;6.054;2023-08-31T11:05:57;3.75;;;0.73;;
65879;SDS011;52661;51.364;6.054;2023-08-31T11:08:23;3.03;;;0.70;;
65879;SDS011;52661;51.364;6.054;2023-08-31T11:10:51;2.88;;;0.90;;
65879;SDS011;52661;51.364;6.054;2023-08-31T11:13:18;5.50;;;0.90;;
65879;SDS011;52661;51.364;6.054;2023-08-31T11:15:45;1.73;;;0.73;;
65879;SDS011;52661;51.364;6.054;2023-08-31T11:18:11;3.30;;;0.93;;
65879;SDS011;52661;51.364;6.054;2023-08-31T11:20:37;4.35;;;0.90;;
65879;SDS011;52661;51.364;6.054;2023-08-31T11:23:03;5.03;;;0.98;;
65879;SDS011;52661;51.364;6.054;2023-08-31T11:25:32;3.47;;;0.52;;
65879;SDS011;52661;51.364;6.054;2023-08-31T11:27:59;3.22;;;0.55;;
65879;SDS011;52661;51.364;6.054;2023-08-31T11:30:26;2.00;;;0.85;;
65879;SDS011;52661;51.364;6.054;2023-08-31T11:32:54;7.07;;;1.20;;
65879;SDS011;52661;51.364;6.054;2023-08-31T11:35:23;4.40;;;0.85;;
65879;SDS011;52661;51.364;6.054;2023-08-31T11:37:55;4.00;;;0.85;;
65879;SDS011;52661;51.364;6.054;2023-08-31T11:40:21;3.80;;;1.02;;
65879;SDS011;52661;51.364;6.054;2023-08-31T11:42:47;2.78;;;0.55;;
65879;SDS011;52661;51.364;6.054;2023-08-31T11:45:15;2.70;;;0.73;;
65879;SDS011;52661;51.364;6.054;2023-08-31T11:47:40;3.47;;;0.75;;
65879;SDS011;52661;51.364;6.054;2023-08-31T11:50:08;3.90;;;0.88;;
65879;SDS011;52661;51.364;6.054;2023-08-31T11:52:34;4.40;;;1.02;;
65879;SDS011;52661;51.364;6.054;2023-08-31T11:55:00;3.90;;;0.82;;
65879;SDS011;52661;51.364;6.054;2023-08-31T11:57:25;4.90;;;1.37;;
65879;SDS011;52661;51.364;6.054;2023-08-31T11:59:51;4.88;;;1.13;;
65879;SDS011;52661;51.364;6.054;2023-08-31T12:02:20;2.65;;;0.65;;
65879;SDS011;52661;51.364;6.054;2023-08-31T12:04:46;3.00;;;1.02;;
65879;SDS011;52661;51.364;6.054;2023-08-31T12:07:15;4.57;;;0.95;;
65879;SDS011;52661;51.364;6.054;2023-08-31T12:09:41;3.35;;;1.42;;
65879;SDS011;52661;51.364;6.054;2023-08-31T12:14:36;4.03;;;1.45;;
65879;SDS011;52661;51.364;6.054;2023-08-31T12:17:05;5.40;;;1.40;;
65879;SDS011;52661;51.364;6.054;2023-08-31T12:19:32;4.63;;;1.52;;
65879;SDS011;52661;51.364;6.054;2023-08-31T12:21:58;4.82;;;1.38;;
65879;SDS011;52661;51.364;6.054;2023-08-31T12:24:24;2.30;;;0.65;;
65879;SDS011;52661;51.364;6.054;2023-08-31T12:26:50;5.38;;;0.95;;
65879;SDS011;52661;51.364;6.054;2023-08-31T12:29:18;4.72;;;1.33;;
65879;SDS011;52661;51.364;6.054;2023-08-31T12:31:44;2.60;;;0.73;;
65879;SDS011;52661;51.364;6.054;2023-08-31T12:34:09;5.53;;;0.98;;
65879;SDS011;52661;51.364;6.054;2023-08-31T12:36:35;2.10;;;0.73;;
65879;SDS011;52661;51.364;6.054;2023-08-31T12:39:06;4.22;;;1.65;;
65879;SDS011;52661;51.364;6.054;2023-08-31T12:41:38;2.72;;;1.05;;
65879;SDS011;52661;51.364;6.054;2023-08-31T12:44:08;5.78;;;1.33;;
65879;SDS011;52661;51.364;6.054;2023-08-31T12:46:33;2.58;;;0.60;;
65879;SDS011;52661;51.364;6.054;2023-08-31T12:49:01;4.07;;;0.73;;
65879;SDS011;52661;51.364;6.054;2023-08-31T12:51:28;3.28;;;0.82;;
65879;SDS011;52661;51.364;6.054;2023-08-31T12:53:55;4.20;;;0.52;;
65879;SDS011;52661;51.364;6.054;2023-08-31T12:56:21;2.20;;;0.57;;
65879;SDS011;52661;51.364;6.054;2023-08-31T12:58:50;3.13;;;0.68;;
65879;SDS011;52661;51.364;6.054;2023-08-31T13:01:16;2.72;;;0.52;;
65879;SDS011;52661;51.364;6.054;2023-08-31T13:03:43;1.15;;;0.22;;
65879;SDS011;52661;51.364;6.054;2023-08-31T13:06:09;2.40;;;0.77;;
65879;SDS011;52661;51.364;6.054;2023-08-31T13:08:34;1.80;;;0.73;;
65879;SDS011;52661;51.364;6.054;2023-08-31T13:11:00;4.75;;;1.10;;
65879;SDS011;52661;51.364;6.054;2023-08-31T13:13:25;2.80;;;0.82;;
65879;SDS011;52661;51.364;6.054;2023-08-31T13:15:51;5.53;;;0.68;;
65879;SDS011;52661;51.364;6.054;2023-08-31T13:18:16;2.60;;;0.52;;
65879;SDS011;52661;51.364;6.054;2023-08-31T13:20:48;8.20;;;1.00;;
65879;SDS011;52661;51.364;6.054;2023-08-31T13:23:17;4.40;;;0.90;;
65879;SDS011;52661;51.364;6.054;2023-08-31T13:25:43;3.35;;;1.00;;
65879;SDS011;52661;51.364;6.054;2023-08-31T13:28:09;2.85;;;0.73;;
65879;SDS011;52661;51.364;6.054;2023-08-31T13:30:34;3.72;;;1.00;;
65879;SDS011;52661;51.364;6.054;2023-08-31T13:32:59;3.83;;;0.73;;
65879;SDS011;52661;51.364;6.054;2023-08-31T13:35:25;5.90;;;0.77;;
65879;SDS011;52661;51.364;6.054;2023-08-31T13:37:50;8.70;;;1.08;;
65879;SDS011;52661;51.364;6.054;2023-08-31T13:40:16;3.08;;;0.45;;
65879;SDS011;52661;51.364;6.054;2023-08-31T13:42:48;3.78;;;0.55;;
65879;SDS011;52661;51.364;6.054;2023-08-31T13:45:19;3.25;;;1.58;;
65879;SDS011;52661;51.364;6.054;2023-08-31T13:47:44;4.28;;;1.85;;
65879;SDS011;52661;51.364;6.054;2023-08-31T13:50:14;6.95;;;1.48;;
65879;SDS011;52661;51.364;6.054;2023-08-31T13:52:40;4.30;;;2.10;;
65879;SDS011;52661;51.364;6.054;2023-08-31T13:55:06;4.78;;;2.30;;
65879;SDS011;52661;51.364;6.054;2023-08-31T13:57:32;4.60;;;1.80;;
65879;SDS011;52661;51.364;6.054;2023-08-31T13:59:57;4.28;;;1.95;;
65879;SDS011;52661;51.364;6.054;2023-08-31T14:02:22;3.33;;;1.97;;
65879;SDS011;52661;51.364;6.054;2023-08-31T14:04:48;4.05;;;2.00;;
65879;SDS011;52661;51.364;6.054;2023-08-31T14:07:13;4.27;;;1.87;;
65879;SDS011;52661;51.364;6.054;2023-08-31T14:09:38;4.50;;;2.07;;
65879;SDS011;52661;51.364;6.054;2023-08-31T14:12:04;4.53;;;2.00;;
65879;SDS011;52661;51.364;6.054;2023-08-31T14:14:29;5.65;;;2.60;;
65879;SDS011;52661;51.364;6.054;2023-08-31T14:16:55;4.53;;;2.17;;
65879;SDS011;52661;51.364;6.054;2023-08-31T14:19:20;6.10;;;2.20;;
65879;SDS011;52661;51.364;6.054;2023-08-31T14:21:47;6.30;;;2.13;;
65879;SDS011;52661;51.364;6.054;2023-08-31T14:24:12;4.05;;;2.33;;
65879;SDS011;52661;51.364;6.054;2023-08-31T14:26:38;5.88;;;2.67;;
65879;SDS011;52661;51.364;6.054;2023-08-31T14:29:03;4.20;;;2.03;;
65879;SDS011;52661;51.364;6.054;2023-08-31T14:31:29;5.97;;;1.98;;
65879;SDS011;52661;51.364;6.054;2023-08-31T14:33:54;6.10;;;2.47;;
65879;SDS011;52661;51.364;6.054;2023-08-31T14:36:20;4.47;;;2.28;;
65879;SDS011;52661;51.364;6.054;2023-08-31T14:38:46;4.15;;;2.33;;
65879;SDS011;52661;51.364;6.054;2023-08-31T14:41:11;5.05;;;2.22;;
65879;SDS011;52661;51.364;6.054;2023-08-31T14:43:37;3.70;;;2.03;;
65879;SDS011;52661;51.364;6.054;2023-08-31T14:46:02;4.07;;;2.28;;
65879;SDS011;52661;51.364;6.054;2023-08-31T14:48:29;6.80;;;2.47;;
65879;SDS011;52661;51.364;6.054;2023-08-31T14:50:55;5.05;;;2.38;;
65879;SDS011;52661;51.364;6.054;2023-08-31T14:53:23;6.57;;;2.45;;
65879;SDS011;52661;51.364;6.054;2023-08-31T14:55:49;7.38;;;2.50;;
65879;SDS011;52661;51.364;6.054;2023-08-31T14:58:14;6.13;;;3.13;;
65879;SDS011;52661;51.364;6.054;2023-08-31T15:00:40;4.95;;;2.47;;
65879;SDS011;52661;51.364;6.054;2023-08-31T15:03:05;7.97;;;2.43;;
65879;SDS011;52661;51.364;6.054;2023-08-31T15:05:30;4.57;;;2.73;;